Time;durP1;ratioP1;P1;durP2;ratioP2;P2;SDS_P1;SDS_P2;PMS_P1;PMS_P2;Temp;Humidity;BMP_temperature;BMP_pressure;BME280_temperature;BME280_humidity;BME280_pressure;Samples;Min_cycle;Max_cycle;Signal;HPM_P1;HPM_P2
2023/03/04 00:01:53;;;;;;;4.82;1.40;;;5.70;99.90;;;;;;5060875;28;20044;-77
2023/03/04 00:04:19;;;;;;;9.18;2.03;;;5.70;99.90;;;;;;5047570;28;20091;-77
2023/03/04 00:06:44;;;;;;;7.60;1.52;;;5.70;99.90;;;;;;5042463;28;20041;-78
2023/03/04 00:09:10;;;;;;;6.13;1.48;;;5.70;99.90;;;;;;5043351;28;20040;-77
2023/03/04 00:11:36;;;;;;;10.05;2.13;;;5.70;99.90;;;;;;5049446;28;20051;-79
2023/03/04 00:14:01;;;;;;;6.70;1.48;;;5.70;99.90;;;;;;5072127;28;20060;-76
2023/03/04 00:16:27;;;;;;;6.40;1.50;;;5.70;99.90;;;;;;5044971;28;20043;-77
2023/03/04 00:18:57;;;;;;;10.07;1.60;;;5.70;99.90;;;;;;5049898;28;20043;-76
2023/03/04 00:21:23;;;;;;;7.28;1.70;;;5.60;99.90;;;;;;5061571;28;20079;-77
2023/03/04 00:23:49;;;;;;;6.70;1.60;;;5.60;99.90;;;;;;5066585;28;20052;-78
2023/03/04 00:26:15;;;;;;;5.65;2.00;;;5.60;99.90;;;;;;5068600;28;20069;-75
2023/03/04 00:28:41;;;;;;;10.88;2.33;;;5.60;99.90;;;;;;5058306;28;20053;-76
2023/03/04 00:31:07;;;;;;;10.45;3.10;;;5.60;99.90;;;;;;5062008;28;20100;-77
2023/03/04 00:33:33;;;;;;;4.38;1.42;;;5.60;99.90;;;;;;5059175;28;20493;-77
2023/03/04 00:35:59;;;;;;;5.25;1.30;;;5.60;99.90;;;;;;5041041;28;20072;-76
2023/03/04 00:38:26;;;;;;;8.07;1.20;;;5.60;99.90;;;;;;5053287;28;20117;-77
2023/03/04 00:40:51;;;;;;;6.13;1.60;;;5.60;99.90;;;;;;5063727;28;20048;-79
2023/03/04 00:43:17;;;;;;;8.15;1.30;;;5.60;99.90;;;;;;5042682;28;20135;-78
2023/03/04 00:45:43;;;;;;;5.47;1.25;;;5.60;99.90;;;;;;5041369;28;20033;-77
2023/03/04 00:48:09;;;;;;;9.27;1.30;;;5.60;99.90;;;;;;5059649;28;20044;-78
2023/03/04 00:50:34;;;;;;;5.38;1.58;;;5.60;99.90;;;;;;5044750;28;20128;-76
2023/03/04 00:53:00;;;;;;;5.88;1.73;;;5.60;99.90;;;;;;5042077;28;20067;-77
2023/03/04 00:55:26;;;;;;;2.70;1.15;;;5.60;99.90;;;;;;5059240;28;20075;-78
2023/03/04 00:57:52;;;;;;;7.40;1.35;;;5.60;99.90;;;;;;5049178;28;20127;-78
2023/03/04 01:00:18;;;;;;;5.13;1.48;;;5.60;99.90;;;;;;5051488;28;20049;-78
2023/03/04 01:02:44;;;;;;;8.13;1.48;;;5.50;99.90;;;;;;5058614;28;20067;-78
2023/03/04 01:05:10;;;;;;;7.38;1.73;;;5.50;99.90;;;;;;5025533;28;20080;-77
2023/03/04 01:07:36;;;;;;;5.40;1.27;;;5.50;99.90;;;;;;5066414;28;20041;-78
2023/03/04 01:10:02;;;;;;;6.70;1.30;;;5.50;99.90;;;;;;5059670;28;20050;-76
2023/03/04 01:12:28;;;;;;;7.15;1.85;;;5.40;99.90;;;;;;5045584;28;20127;-77
2023/03/04 01:14:54;;;;;;;7.35;1.50;;;5.50;99.90;;;;;;5042594;28;20579;-78
2023/03/04 01:17:20;;;;;;;6.38;1.35;;;5.50;99.90;;;;;;5051829;28;20057;-77
2023/03/04 01:19:46;;;;;;;5.43;1.40;;;5.50;99.90;;;;;;5049180;28;20075;-78
2023/03/04 01:22:13;;;;;;;4.22;1.30;;;5.50;99.90;;;;;;5041803;28;20053;-77
2023/03/04 01:24:39;;;;;;;6.28;1.00;;;5.50;99.90;;;;;;5055949;28;20049;-79
2023/03/04 01:27:05;;;;;;;7.72;2.00;;;5.60;99.90;;;;;;5076535;28;20056;-77
2023/03/04 01:29:31;;;;;;;5.60;1.50;;;5.60;99.90;;;;;;5044690;28;20055;-77
2023/03/04 01:31:57;;;;;;;6.63;1.50;;;5.50;99.90;;;;;;5060166;28;20072;-78
2023/03/04 01:34:22;;;;;;;5.45;1.30;;;5.60;99.90;;;;;;5047541;28;20045;-78
2023/03/04 01:36:48;;;;;;;6.15;1.40;;;5.60;99.90;;;;;;5061460;28;20040;-77
2023/03/04 01:39:14;;;;;;;5.15;1.20;;;5.50;99.90;;;;;;5052807;28;20036;-77
2023/03/04 01:41:40;;;;;;;6.32;1.85;;;5.50;99.90;;;;;;5039810;28;20060;-77
2023/03/04 01:44:07;;;;;;;7.25;1.42;;;5.50;99.90;;;;;;5057575;28;20048;-78
2023/03/04 01:46:33;;;;;;;3.67;1.40;;;5.50;99.90;;;;;;5059783;28;20041;-78
2023/03/04 01:48:59;;;;;;;4.63;0.98;;;5.50;99.90;;;;;;5056565;28;20051;-76
2023/03/04 01:51:25;;;;;;;3.85;1.15;;;5.50;99.90;;;;;;5058007;28;20230;-77
2023/03/04 01:53:53;;;;;;;8.30;1.30;;;5.50;99.90;;;;;;5042795;28;20048;-77
2023/03/04 01:56:29;;;;;;;6.43;1.40;;;5.40;99.90;;;;;;5043574;28;20072;-79
2023/03/04 01:59:07;;;;;;;3.77;1.03;;;5.40;99.90;;;;;;5056508;28;20055;-77
2023/03/04 02:01:33;;;;;;;7.72;1.83;;;5.40;99.90;;;;;;5056106;28;20288;-78
2023/03/04 02:03:59;;;;;;;3.25;0.98;;;5.40;99.90;;;;;;5042696;28;20064;-78
2023/03/04 02:06:25;;;;;;;5.47;1.27;;;5.40;99.90;;;;;;5067687;28;20041;-79
2023/03/04 02:08:50;;;;;;;4.60;1.20;;;5.40;99.90;;;;;;5054494;28;20032;-78
2023/03/04 02:11:16;;;;;;;4.93;1.20;;;5.40;99.90;;;;;;5062309;28;20063;-79
2023/03/04 02:13:42;;;;;;;4.88;1.40;;;5.40;99.90;;;;;;5039933;28;20057;-79
2023/03/04 02:16:08;;;;;;;6.07;2.03;;;5.30;99.90;;;;;;5059556;28;20052;-77
2023/03/04 02:18:33;;;;;;;4.78;1.33;;;5.40;99.90;;;;;;5047065;28;20079;-78
2023/03/04 02:21:21;;;;;;;6.28;1.50;;;5.40;99.90;;;;;;5056126;28;20075;-80
2023/03/04 02:24:07;;;;;;;3.67;1.00;;;5.30;99.90;;;;;;5038531;28;20055;-79
2023/03/04 02:26:38;;;;;;;6.47;1.50;;;5.30;99.90;;;;;;5057094;28;20049;-78
2023/03/04 02:29:04;;;;;;;4.68;1.35;;;5.40;99.90;;;;;;5039321;28;20061;-78
2023/03/04 02:31:43;;;;;;;6.15;1.55;;;5.30;99.90;;;;;;5039401;28;20120;-79
2023/03/04 02:34:15;;;;;;;6.05;1.58;;;5.30;99.90;;;;;;5056451;28;20052;-78
2023/03/04 02:36:43;;;;;;;4.72;1.30;;;5.30;99.90;;;;;;5064089;28;20056;-78
2023/03/04 02:39:20;;;;;;;10.70;2.00;;;5.30;99.90;;;;;;5043908;28;20059;-77
2023/03/04 02:41:50;;;;;;;5.53;1.40;;;5.40;99.90;;;;;;5039407;28;20468;-78
2023/03/04 02:44:19;;;;;;;5.35;1.58;;;5.30;99.90;;;;;;5055738;28;20049;-77
2023/03/04 02:46:45;;;;;;;5.63;1.35;;;5.30;99.90;;;;;;5063392;28;20104;-77
2023/03/04 02:49:11;;;;;;;7.28;1.70;;;5.40;99.90;;;;;;5054969;28;20075;-77
2023/03/04 02:51:37;;;;;;;3.10;1.20;;;5.30;99.90;;;;;;5061580;28;20049;-78
2023/03/04 02:54:02;;;;;;;10.52;1.42;;;5.40;99.90;;;;;;5038056;28;20037;-78
2023/03/04 02:56:28;;;;;;;4.60;1.10;;;5.40;99.90;;;;;;5040571;28;20036;-78
2023/03/04 02:58:54;;;;;;;3.42;1.10;;;5.30;99.90;;;;;;5052780;28;20071;-79
2023/03/04 03:01:19;;;;;;;5.38;1.15;;;5.30;99.90;;;;;;5022560;28;20583;-77
2023/03/04 03:03:45;;;;;;;5.75;1.10;;;5.30;99.90;;;;;;5055750;28;20079;-77
2023/03/04 03:06:11;;;;;;;5.68;1.13;;;5.30;99.90;;;;;;5056992;28;20051;-77
2023/03/04 03:08:37;;;;;;;7.28;1.48;;;5.30;99.90;;;;;;5073545;28;20036;-78
2023/03/04 03:11:02;;;;;;;3.35;1.13;;;5.30;99.90;;;;;;5038512;28;20060;-79
2023/03/04 03:13:28;;;;;;;3.97;1.10;;;5.30;99.90;;;;;;5055095;28;20055;-79
2023/03/04 03:15:54;;;;;;;3.92;1.25;;;5.20;99.90;;;;;;5050644;28;20108;-78
2023/03/04 03:18:20;;;;;;;7.93;1.50;;;5.20;99.90;;;;;;5055678;28;20052;-79
2023/03/04 03:20:45;;;;;;;5.15;1.35;;;5.20;99.90;;;;;;5055497;28;20045;-79
2023/03/04 03:23:12;;;;;;;7.43;1.77;;;5.20;99.90;;;;;;5054920;28;20126;-79
2023/03/04 03:25:37;;;;;;;6.45;1.20;;;5.10;99.90;;;;;;5057700;28;20052;-79
2023/03/04 03:28:03;;;;;;;7.18;1.45;;;5.10;99.90;;;;;;5054457;28;20064;-78
2023/03/04 03:30:29;;;;;;;6.20;1.50;;;5.00;99.90;;;;;;5042943;28;20036;-78
2023/03/04 03:32:55;;;;;;;6.60;1.50;;;5.10;99.90;;;;;;5039394;28;20044;-78
2023/03/04 03:35:20;;;;;;;8.73;1.30;;;5.00;99.90;;;;;;5015176;28;20075;-79
2023/03/04 03:37:47;;;;;;;4.10;1.40;;;5.00;99.90;;;;;;5044146;28;20048;-79
2023/03/04 03:40:14;;;;;;;3.40;1.08;;;5.10;99.90;;;;;;5057662;28;20049;-80
2023/03/04 03:42:40;;;;;;;6.15;1.75;;;5.00;99.90;;;;;;5055406;28;20051;-79
2023/03/04 03:45:06;;;;;;;5.13;1.52;;;4.90;99.90;;;;;;5061507;28;20104;-78
2023/03/04 03:47:31;;;;;;;9.25;1.45;;;5.00;99.90;;;;;;5026981;28;20470;-79
2023/03/04 03:49:57;;;;;;;5.30;1.30;;;5.00;99.90;;;;;;5056915;28;20087;-79
2023/03/04 03:52:23;;;;;;;6.75;2.08;;;5.00;99.90;;;;;;5039207;28;20112;-78
2023/03/04 03:54:49;;;;;;;4.97;1.20;;;5.00;99.90;;;;;;5054399;28;20075;-77
2023/03/04 03:57:14;;;;;;;8.52;1.35;;;5.00;99.90;;;;;;5054801;28;20108;-78
2023/03/04 03:59:40;;;;;;;7.57;1.50;;;4.90;99.90;;;;;;5038611;28;20710;-77
2023/03/04 04:02:06;;;;;;;5.50;1.23;;;4.90;99.90;;;;;;5053710;28;20048;-78
2023/03/04 04:04:32;;;;;;;4.72;1.52;;;4.90;99.90;;;;;;5056093;28;20136;-77
2023/03/04 04:06:57;;;;;;;3.55;1.10;;;4.90;99.90;;;;;;5037102;28;20037;-77
2023/03/04 04:09:23;;;;;;;3.78;1.23;;;4.90;99.90;;;;;;5045731;28;20146;-78
2023/03/04 04:11:49;;;;;;;4.00;0.98;;;4.90;99.90;;;;;;5039073;28;20066;-80
2023/03/04 04:14:14;;;;;;;6.47;1.13;;;5.10;99.90;;;;;;5038201;28;20045;-78
2023/03/04 04:16:41;;;;;;;2.92;1.10;;;4.90;99.90;;;;;;5040009;28;20053;-78
2023/03/04 04:19:07;;;;;;;6.70;2.28;;;4.90;99.90;;;;;;5057649;28;20084;-77
2023/03/04 04:21:32;;;;;;;5.88;1.00;;;4.90;99.90;;;;;;5039873;28;20033;-78
2023/03/04 04:23:58;;;;;;;4.55;1.25;;;5.00;99.90;;;;;;5029059;28;20076;-77
2023/03/04 04:26:24;;;;;;;6.57;1.20;;;4.90;99.90;;;;;;5043646;28;20045;-77
2023/03/04 04:28:49;;;;;;;6.75;1.50;;;4.90;99.90;;;;;;5037597;28;20053;-78
2023/03/04 04:31:15;;;;;;;4.15;1.35;;;4.90;99.90;;;;;;5038246;28;20041;-78
2023/03/04 04:33:41;;;;;;;5.45;1.23;;;5.00;99.90;;;;;;5051775;28;20125;-78
2023/03/04 04:36:12;;;;;;;4.63;1.40;;;5.00;99.90;;;;;;5060525;28;20048;-78
2023/03/04 04:38:37;;;;;;;6.53;1.45;;;5.00;99.90;;;;;;5069124;28;20100;-77
2023/03/04 04:41:04;;;;;;;5.40;1.48;;;5.00;99.90;;;;;;5053473;28;20068;-78
2023/03/04 04:43:29;;;;;;;5.65;1.30;;;5.00;99.90;;;;;;5066759;28;20071;-78
2023/03/04 04:45:57;;;;;;;6.68;1.83;;;4.90;99.90;;;;;;5057787;28;20056;-76
2023/03/04 04:48:23;;;;;;;7.13;1.60;;;4.90;99.90;;;;;;5055258;28;20048;-76
2023/03/04 04:50:54;;;;;;;3.17;1.00;;;4.90;99.90;;;;;;5041759;28;20049;-76
2023/03/04 04:53:20;;;;;;;3.72;1.35;;;4.90;99.90;;;;;;5052883;28;20052;-75
2023/03/04 04:55:46;;;;;;;4.75;1.50;;;4.90;99.90;;;;;;5039921;28;20051;-75
2023/03/04 04:58:11;;;;;;;6.82;1.98;;;4.90;99.90;;;;;;5050121;28;20087;-75
2023/03/04 05:00:37;;;;;;;4.15;1.02;;;4.90;99.90;;;;;;5049083;28;20098;-75
2023/03/04 05:03:03;;;;;;;7.07;1.30;;;4.90;99.90;;;;;;5043112;28;20049;-76
2023/03/04 05:05:28;;;;;;;2.83;0.85;;;4.90;99.90;;;;;;5042800;28;20047;-77
2023/03/04 05:07:54;;;;;;;2.80;1.40;;;4.90;99.90;;;;;;5043529;28;20144;-78
2023/03/04 05:10:20;;;;;;;5.47;1.10;;;4.90;99.90;;;;;;5063050;28;20498;-78
2023/03/04 05:12:45;;;;;;;5.10;1.20;;;4.90;99.90;;;;;;5060396;28;20133;-77
2023/03/04 05:15:11;;;;;;;6.20;1.27;;;4.90;99.90;;;;;;5039727;28;20045;-76
2023/03/04 05:17:37;;;;;;;3.38;1.02;;;4.80;99.90;;;;;;5071630;28;20067;-78
2023/03/04 05:20:03;;;;;;;4.22;1.40;;;4.90;99.90;;;;;;5044026;28;20044;-76
2023/03/04 05:22:29;;;;;;;4.95;1.20;;;4.80;99.90;;;;;;5060316;28;20058;-76
2023/03/04 05:24:54;;;;;;;3.50;1.15;;;4.80;99.90;;;;;;5056688;28;20044;-76
2023/03/04 05:27:20;;;;;;;4.50;1.15;;;4.70;99.90;;;;;;5056991;28;20045;-78
2023/03/04 05:29:46;;;;;;;10.23;1.83;;;4.70;99.90;;;;;;5041221;28;20072;-77
2023/03/04 05:32:12;;;;;;;4.22;1.15;;;4.70;99.90;;;;;;5063964;28;20072;-77
2023/03/04 05:34:37;;;;;;;7.72;1.48;;;4.70;99.90;;;;;;5042011;28;20049;-78
2023/03/04 05:37:03;;;;;;;3.35;1.10;;;4.60;99.90;;;;;;5039454;28;20052;-81
2023/03/04 05:39:29;;;;;;;4.60;1.42;;;4.60;99.90;;;;;;5041141;28;20054;-82
2023/03/04 05:41:54;;;;;;;3.35;1.13;;;4.60;99.90;;;;;;5039845;28;20072;-83
2023/03/04 05:44:20;;;;;;;4.95;1.50;;;4.50;99.90;;;;;;5056866;28;20115;-78
2023/03/04 05:46:46;;;;;;;3.08;1.17;;;4.50;99.90;;;;;;5060143;28;20096;-83
2023/03/04 05:49:11;;;;;;;4.75;1.33;;;4.40;99.90;;;;;;5056062;28;20052;-79
2023/03/04 05:51:37;;;;;;;4.60;1.33;;;4.50;99.90;;;;;;5068840;28;20041;-80
2023/03/04 05:54:03;;;;;;;4.78;1.05;;;4.40;99.90;;;;;;5049435;28;20475;-78
2023/03/04 05:56:29;;;;;;;5.22;1.15;;;4.40;99.90;;;;;;5060761;28;20075;-79
2023/03/04 05:58:58;;;;;;;4.30;1.10;;;4.40;99.90;;;;;;5056262;28;20057;-81
2023/03/04 06:01:24;;;;;;;5.07;1.40;;;4.40;99.90;;;;;;5061742;28;20076;-79
2023/03/04 06:03:50;;;;;;;5.18;1.38;;;4.40;99.90;;;;;;5056472;28;20065;-79
2023/03/04 06:06:16;;;;;;;3.28;1.02;;;4.40;99.90;;;;;;5048715;28;20056;-79
2023/03/04 06:08:42;;;;;;;4.28;1.02;;;4.40;99.90;;;;;;5042673;28;20040;-80
2023/03/04 06:11:08;;;;;;;6.07;1.20;;;4.40;99.90;;;;;;5039284;28;20053;-80
2023/03/04 06:13:34;;;;;;;6.70;1.88;;;4.40;99.90;;;;;;5057564;28;20051;-80
2023/03/04 06:16:00;;;;;;;5.65;1.52;;;4.40;99.90;;;;;;5058491;28;20041;-79
2023/03/04 06:18:27;;;;;;;5.78;1.50;;;4.30;99.90;;;;;;5044251;28;20122;-77
2023/03/04 06:21:01;;;;;;;8.35;1.50;;;4.40;99.90;;;;;;5048019;28;20564;-78
2023/03/04 06:23:28;;;;;;;4.78;1.17;;;4.30;99.90;;;;;;5055029;28;20049;-77
2023/03/04 06:25:56;;;;;;;5.07;1.30;;;4.30;99.90;;;;;;5058670;28;20056;-78
2023/03/04 06:28:23;;;;;;;7.43;1.50;;;4.40;99.90;;;;;;5055578;28;20126;-75
2023/03/04 06:30:52;;;;;;;8.23;1.42;;;4.30;99.90;;;;;;5058804;28;20036;-77
2023/03/04 06:33:17;;;;;;;4.18;1.50;;;4.40;99.90;;;;;;5055271;28;20053;-76
2023/03/04 06:35:43;;;;;;;6.63;1.58;;;4.40;99.90;;;;;;5064221;28;20067;-77
2023/03/04 06:38:09;;;;;;;4.45;1.10;;;4.40;99.90;;;;;;5075220;28;20134;-77
2023/03/04 06:40:34;;;;;;;4.45;1.42;;;4.40;99.90;;;;;;5060821;28;20136;-77
2023/03/04 06:43:00;;;;;;;4.05;1.30;;;4.40;99.90;;;;;;5056925;28;20048;-76
2023/03/04 06:45:26;;;;;;;8.27;1.75;;;4.40;99.90;;;;;;5038554;28;20048;-77
2023/03/04 06:47:52;;;;;;;3.60;1.30;;;4.40;99.90;;;;;;5056395;28;20112;-78
2023/03/04 06:50:18;;;;;;;4.68;1.50;;;4.40;99.90;;;;;;5067408;28;20085;-79
2023/03/04 06:52:43;;;;;;;6.22;1.40;;;4.40;99.90;;;;;;5066047;28;20052;-78
2023/03/04 06:55:09;;;;;;;5.95;1.45;;;4.50;99.90;;;;;;5059200;28;20136;-78
2023/03/04 06:57:35;;;;;;;5.97;1.50;;;4.50;99.90;;;;;;5055214;28;20045;-80
2023/03/04 07:00:02;;;;;;;4.22;1.27;;;4.50;99.90;;;;;;5056574;28;20091;-79
2023/03/04 07:02:28;;;;;;;3.17;1.08;;;4.50;99.90;;;;;;5054352;28;20516;-78
2023/03/04 07:04:53;;;;;;;4.57;1.25;;;4.50;99.90;;;;;;5056312;28;20194;-79
2023/03/04 07:07:19;;;;;;;3.78;1.20;;;4.60;99.90;;;;;;5049396;28;20080;-80
2023/03/04 07:09:45;;;;;;;4.13;1.20;;;4.60;99.90;;;;;;5067087;28;20045;-81
2023/03/04 07:12:11;;;;;;;6.90;1.50;;;4.60;99.90;;;;;;5055408;28;20049;-79
2023/03/04 07:14:36;;;;;;;6.38;1.77;;;4.70;99.90;;;;;;5050349;28;20049;-80
2023/03/04 07:17:02;;;;;;;5.03;1.20;;;4.70;99.90;;;;;;5039422;28;20053;-81
2023/03/04 07:19:28;;;;;;;4.22;1.02;;;4.70;99.90;;;;;;5054811;28;20615;-80
2023/03/04 07:21:54;;;;;;;5.30;1.40;;;4.80;99.90;;;;;;5056345;28;20110;-80
2023/03/04 07:24:19;;;;;;;10.23;1.70;;;4.80;99.90;;;;;;5038596;28;20056;-78
2023/03/04 07:26:45;;;;;;;3.35;1.05;;;4.70;99.90;;;;;;5056099;28;20909;-79
2023/03/04 07:29:12;;;;;;;4.03;1.42;;;4.80;99.90;;;;;;5038100;28;20439;-78
2023/03/04 07:31:38;;;;;;;4.60;1.27;;;4.80;99.90;;;;;;5038433;28;20049;-78
2023/03/04 07:34:10;;;;;;;4.15;1.10;;;4.80;99.90;;;;;;5068642;28;20082;-79
2023/03/04 07:36:36;;;;;;;4.18;1.00;;;4.90;99.90;;;;;;5041783;28;20467;-79
2023/03/04 07:39:03;;;;;;;4.55;1.00;;;4.90;99.90;;;;;;5055862;28;20602;-78
2023/03/04 07:41:29;;;;;;;4.82;0.82;;;5.00;99.90;;;;;;5054767;28;20040;-79
2023/03/04 07:43:56;;;;;;;2.92;1.10;;;5.00;99.90;;;;;;5055308;28;20068;-79
2023/03/04 07:46:23;;;;;;;2.55;1.00;;;5.10;99.90;;;;;;5042769;28;20037;-78
2023/03/04 07:48:49;;;;;;;4.18;0.98;;;5.10;99.90;;;;;;5054673;28;20104;-78
2023/03/04 07:51:18;;;;;;;2.80;0.90;;;5.10;99.90;;;;;;5055881;28;20088;-78
2023/03/04 07:53:46;;;;;;;2.67;1.00;;;5.20;99.90;;;;;;5064863;28;20056;-79
2023/03/04 07:56:14;;;;;;;2.75;1.08;;;5.30;99.90;;;;;;5055664;28;20130;-80
2023/03/04 07:58:40;;;;;;;3.90;0.95;;;5.30;99.90;;;;;;5053954;28;20098;-79
2023/03/04 08:01:11;;;;;;;3.78;0.93;;;5.40;99.90;;;;;;5038609;28;20029;-80
2023/03/04 08:03:37;;;;;;;6.25;1.05;;;5.40;99.90;;;;;;5071475;28;20063;-79
2023/03/04 08:06:08;;;;;;;5.07;1.02;;;5.40;99.90;;;;;;5052797;28;20068;-80
2023/03/04 08:08:34;;;;;;;4.97;1.30;;;5.50;99.90;;;;;;5066862;28;20080;-77
2023/03/04 08:11:02;;;;;;;3.83;0.85;;;5.50;99.90;;;;;;5053577;28;20048;-77
2023/03/04 08:13:28;;;;;;;3.35;0.90;;;5.50;99.90;;;;;;5058939;28;20056;-77
2023/03/04 08:15:55;;;;;;;4.25;0.98;;;5.50;99.90;;;;;;5068410;28;20055;-78
2023/03/04 08:18:21;;;;;;;3.85;0.77;;;5.60;99.90;;;;;;5069920;28;20041;-76
2023/03/04 08:20:46;;;;;;;3.03;0.85;;;5.60;99.90;;;;;;5063962;28;20063;-77
2023/03/04 08:23:12;;;;;;;1.73;0.70;;;5.60;99.90;;;;;;5052662;28;20063;-76
2023/03/04 08:25:40;;;;;;;2.38;1.00;;;5.60;99.90;;;;;;5063745;28;20044;-75
2023/03/04 08:28:07;;;;;;;4.85;1.50;;;5.60;99.90;;;;;;5057110;28;20044;-77
2023/03/04 08:30:33;;;;;;;4.22;1.20;;;5.50;99.90;;;;;;5071631;28;20060;-73
2023/03/04 08:33:00;;;;;;;5.80;1.20;;;5.50;99.90;;;;;;5042203;28;20049;-75
2023/03/04 08:35:26;;;;;;;3.13;1.27;;;5.50;99.90;;;;;;5060103;28;20080;-76
2023/03/04 08:37:52;;;;;;;5.82;2.20;;;5.50;99.90;;;;;;5067280;28;20462;-75
2023/03/04 08:40:17;;;;;;;8.73;1.58;;;5.50;99.90;;;;;;5069610;28;20132;-75
2023/03/04 08:42:43;;;;;;;8.68;1.70;;;5.40;99.90;;;;;;5042605;28;20052;-76
2023/03/04 08:45:10;;;;;;;6.32;1.60;;;5.40;99.90;;;;;;5041021;28;20056;-76
2023/03/04 08:47:36;;;;;;;5.22;1.38;;;5.50;99.90;;;;;;5059078;28;20075;-76
2023/03/04 08:50:02;;;;;;;7.35;1.48;;;5.50;99.90;;;;;;5057519;28;20130;-76
2023/03/04 08:52:29;;;;;;;9.57;2.08;;;5.50;99.90;;;;;;5042090;28;20087;-77
2023/03/04 08:54:55;;;;;;;6.85;1.92;;;5.50;99.90;;;;;;5033519;28;20045;-75
2023/03/04 08:57:21;;;;;;;15.80;6.25;;;5.40;99.90;;;;;;5063760;28;20062;-77
2023/03/04 08:59:46;;;;;;;8.80;3.47;;;5.40;99.90;;;;;;5042173;28;20451;-76
2023/03/04 09:02:12;;;;;;;7.80;2.00;;;5.50;99.90;;;;;;5056346;28;20072;-74
2023/03/04 09:04:38;;;;;;;8.07;1.80;;;5.50;99.90;;;;;;5041822;28;20096;-76
2023/03/04 09:07:04;;;;;;;4.63;1.73;;;5.50;99.90;;;;;;5064341;28;20113;-75
2023/03/04 09:09:30;;;;;;;9.02;2.00;;;5.50;99.90;;;;;;5058038;28;20104;-77
2023/03/04 09:11:56;;;;;;;6.93;1.60;;;5.60;99.90;;;;;;5048210;28;20044;-76
2023/03/04 09:14:22;;;;;;;10.18;2.17;;;5.60;99.90;;;;;;5057537;28;20060;-75
2023/03/04 09:16:47;;;;;;;8.15;2.03;;;5.70;99.90;;;;;;5058038;28;20094;-76
2023/03/04 09:19:13;;;;;;;6.85;1.60;;;5.70;99.90;;;;;;5058813;28;20055;-76
2023/03/04 09:21:39;;;;;;;5.75;1.60;;;5.80;99.90;;;;;;5060876;28;20060;-76
2023/03/04 09:24:05;;;;;;;7.10;1.83;;;5.90;99.90;;;;;;5041139;28;20044;-75
2023/03/04 09:26:30;;;;;;;10.80;2.10;;;5.90;99.90;;;;;;5041351;28;20033;-75
2023/03/04 09:28:58;;;;;;;8.38;2.55;;;6.10;99.90;;;;;;5068548;28;20104;-75
2023/03/04 09:31:25;;;;;;;8.25;2.08;;;6.20;99.90;;;;;;5047980;28;20104;-76
2023/03/04 09:33:51;;;;;;;4.35;2.03;;;6.20;99.90;;;;;;5072151;28;20405;-76
2023/03/04 09:36:18;;;;;;;11.48;2.25;;;6.30;99.90;;;;;;5050300;28;20476;-76
2023/03/04 09:38:44;;;;;;;7.88;1.63;;;6.30;99.90;;;;;;5059208;28;20045;-76
2023/03/04 09:41:20;;;;;;;7.90;2.08;;;6.40;99.90;;;;;;5038935;28;20059;-76
2023/03/04 09:43:47;;;;;;;5.07;1.50;;;6.40;99.90;;;;;;5065052;28;20072;-75
2023/03/04 09:46:22;;;;;;;6.60;1.48;;;6.40;99.90;;;;;;5028152;28;20044;-75
2023/03/04 09:48:53;;;;;;;8.43;2.20;;;6.40;99.90;;;;;;5065084;28;20063;-75
2023/03/04 09:51:40;;;;;;;8.32;1.65;;;6.40;99.90;;;;;;5048091;28;20496;-74
2023/03/04 09:54:25;;;;;;;;;;;6.50;99.90;;;;;;5043818;28;20040;-76
2023/03/04 09:56:59;;;;;;;8.18;2.00;;;6.40;99.90;;;;;;5040895;28;19921;-75
2023/03/04 09:59:31;;;;;;;6.22;1.98;;;6.50;99.90;;;;;;5057700;28;20104;-76
2023/03/04 10:02:12;;;;;;;8.63;2.25;;;6.50;99.90;;;;;;5055292;28;20037;-76
2023/03/04 10:04:50;;;;;;;7.38;1.70;;;6.60;99.90;;;;;;5039994;28;20084;-74
2023/03/04 10:07:28;;;;;;;10.48;2.47;;;6.60;99.90;;;;;;5056885;28;20378;-77
2023/03/04 10:10:04;;;;;;;7.30;2.70;;;6.60;99.90;;;;;;5056229;28;20164;-76
2023/03/04 10:12:33;;;;;;;5.43;2.17;;;6.70;99.90;;;;;;5044958;28;20046;-75
2023/03/04 10:15:03;;;;;;;6.45;1.70;;;6.60;99.90;;;;;;5055156;28;20064;-74
2023/03/04 10:17:35;;;;;;;7.38;1.65;;;6.60;99.90;;;;;;5061728;28;20040;-77
2023/03/04 10:20:29;;;;;;;4.97;1.83;;;6.70;99.90;;;;;;5056607;28;20079;-77
2023/03/04 10:23:21;;;;;;;8.55;1.60;;;6.70;99.90;;;;;;5060904;28;20133;-78
2023/03/04 10:25:52;;;;;;;7.28;2.17;;;6.60;99.90;;;;;;5051822;28;20072;-77
2023/03/04 10:28:25;;;;;;;6.07;1.50;;;6.50;99.90;;;;;;5055811;28;20053;-77
2023/03/04 10:31:26;;;;;;;2.63;1.08;;;6.50;99.90;;;;;;5043341;28;20039;-74
2023/03/04 10:33:51;;;;;;;4.10;1.00;;;6.30;99.90;;;;;;5076229;28;20131;-75
2023/03/04 10:36:29;;;;;;;3.70;0.82;;;6.20;99.90;;;;;;5075121;28;20041;-76
2023/03/04 10:39:09;;;;;;;3.58;1.10;;;6.20;99.90;;;;;;5060001;28;20056;-76
2023/03/04 10:41:36;;;;;;;2.67;0.90;;;6.20;99.90;;;;;;5074805;28;20045;-77
2023/03/04 10:44:04;;;;;;;4.47;0.90;;;6.20;99.90;;;;;;5075604;28;20266;-75
2023/03/04 10:46:31;;;;;;;3.30;1.00;;;6.30;99.90;;;;;;5057115;28;20104;-76
2023/03/04 10:48:57;;;;;;;2.95;0.90;;;6.50;99.90;;;;;;5075406;28;20076;-76
2023/03/04 10:51:26;;;;;;;3.45;1.08;;;6.70;99.90;;;;;;5059833;28;20052;-75
2023/03/04 10:54:20;;;;;;;5.03;1.30;;;7.10;99.90;;;;;;5074684;28;20046;-77
2023/03/04 10:57:31;;;;;;;2.60;0.73;;;7.70;99.90;;;;;;5075482;28;20060;-78
2023/03/04 10:59:59;;;;;;;2.88;1.02;;;8.10;99.90;;;;;;5076314;28;20586;-77
2023/03/04 11:02:31;;;;;;;3.78;1.20;;;8.00;99.90;;;;;;5074448;28;20040;-76
2023/03/04 11:05:18;;;;;;;5.93;0.98;;;7.70;99.90;;;;;;5059676;28;20060;-77
2023/03/04 11:07:58;;;;;;;4.03;0.85;;;7.40;99.90;;;;;;5075345;28;20048;-75
2023/03/04 11:10:49;;;;;;;8.45;1.85;;;7.30;99.90;;;;;;5084908;28;20188;-75
2023/03/04 11:13:25;;;;;;;8.18;1.75;;;7.00;99.90;;;;;;5096755;28;20070;-76
2023/03/04 11:15:58;;;;;;;6.43;1.77;;;6.80;99.90;;;;;;5078312;28;20067;-76
2023/03/04 11:18:42;;;;;;;8.02;1.85;;;6.60;99.90;;;;;;5095812;28;20063;-76
2023/03/04 11:21:15;;;;;;;10.07;2.45;;;6.50;99.90;;;;;;5079675;28;20106;-76
2023/03/04 11:23:54;;;;;;;5.47;2.10;;;6.50;99.90;;;;;;5074556;28;20416;-76
2023/03/04 11:26:27;;;;;;;6.75;2.05;;;6.50;99.90;;;;;;5073212;28;20037;-75
2023/03/04 11:29:14;;;;;;;9.13;1.70;;;6.50;99.90;;;;;;5074195;28;20530;-75
2023/03/04 11:31:49;;;;;;;7.03;1.77;;;6.70;99.90;;;;;;5075137;28;20047;-75
2023/03/04 11:34:37;;;;;;;7.53;1.55;;;6.90;99.90;;;;;;5059095;28;20057;-77
2023/03/04 11:37:12;;;;;;;9.07;1.92;;;7.00;99.90;;;;;;5074022;28;20095;-76
2023/03/04 11:40:11;;;;;;;4.55;1.48;;;7.10;99.90;;;;;;5055650;28;20049;-78
2023/03/04 11:43:19;;;;;;;8.13;1.35;;;7.30;99.90;;;;;;5040690;28;20539;-76
2023/03/04 11:45:58;;;;;;;6.78;1.30;;;7.20;99.90;;;;;;5051071;28;20068;-75
2023/03/04 11:48:43;;;;;;;8.65;1.98;;;7.20;99.90;;;;;;5058250;28;20055;-78
2023/03/04 11:51:08;;;;;;;4.63;1.52;;;7.20;99.90;;;;;;5059471;28;20056;-78
2023/03/04 11:54:02;;;;;;;7.03;1.50;;;7.10;99.90;;;;;;5044107;28;20092;-74
2023/03/04 11:56:31;;;;;;;7.22;1.92;;;7.10;99.90;;;;;;5079100;28;20102;-76
2023/03/04 11:59:05;;;;;;;8.55;2.20;;;7.20;99.90;;;;;;5078693;28;20052;-77
2023/03/04 12:02:23;;;;;;;8.68;1.70;;;7.20;99.90;;;;;;5078723;28;20060;-74
2023/03/04 12:04:58;;;;;;;7.47;1.77;;;7.50;99.90;;;;;;5076953;28;20044;-78
2023/03/04 12:08:08;;;;;;;5.57;1.55;;;7.80;99.90;;;;;;5078258;28;20076;-74
2023/03/04 12:10:44;;;;;;;7.57;1.88;;;7.90;99.90;;;;;;5076169;28;20159;-78
2023/03/04 12:13:51;;;;;;;6.00;1.77;;;7.90;99.90;;;;;;5079742;28;20064;-80
2023/03/04 12:16:47;;;;;;;7.03;1.63;;;7.80;99.90;;;;;;5078485;28;20145;-79
2023/03/04 12:19:56;;;;;;;10.45;2.38;;;7.70;99.90;;;;;;5077614;28;20107;-79
2023/03/04 12:22:26;;;;;;;9.10;1.88;;;7.70;99.90;;;;;;5089584;28;20044;-75
2023/03/04 12:25:15;;;;;;;7.03;1.50;;;7.70;99.90;;;;;;5077935;28;20055;-75
2023/03/04 12:28:20;;;;;;;5.20;1.50;;;8.00;99.90;;;;;;5069786;28;20044;-75
2023/03/04 12:31:09;;;;;;;7.22;1.50;;;8.30;99.90;;;;;;5067318;28;20055;-76
2023/03/04 12:34:12;;;;;;;5.25;1.17;;;8.70;99.90;;;;;;5067036;28;20052;-76
2023/03/04 12:37:09;;;;;;;4.60;1.40;;;8.60;99.90;;;;;;5061371;28;20080;-78
2023/03/04 12:39:54;;;;;;;;;;;8.50;99.90;;;;;;5051229;28;20060;-78
2023/03/04 12:42:35;;;;;;;5.78;1.40;;;8.20;99.90;;;;;;5078156;28;19920;-79
2023/03/04 12:45:22;;;;;;;8.35;2.10;;;8.00;99.90;;;;;;5076933;28;20053;-77
2023/03/04 12:48:01;;;;;;;4.53;1.45;;;8.00;99.90;;;;;;5062017;28;20080;-79
2023/03/04 12:50:38;;;;;;;5.57;1.40;;;7.90;99.90;;;;;;5077970;28;20037;-80
2023/03/04 12:53:20;;;;;;;5.38;1.33;;;8.00;99.90;;;;;;5060988;28;20454;-79
2023/03/04 12:55:48;;;;;;;6.47;1.65;;;7.90;99.90;;;;;;5060347;28;20045;-80
2023/03/04 12:58:22;;;;;;;3.85;1.38;;;8.00;99.90;;;;;;5040817;28;20052;-74
2023/03/04 13:00:53;;;;;;;5.75;1.85;;;8.10;99.90;;;;;;5055979;28;20044;-78
2023/03/04 13:03:21;;;;;;;4.95;1.52;;;8.20;99.90;;;;;;5057548;28;20630;-75
2023/03/04 13:06:21;;;;;;;6.40;1.33;;;8.30;99.90;;;;;;5077396;28;20048;-75
2023/03/04 13:09:19;;;;;;;5.95;1.55;;;8.20;99.90;;;;;;5061819;28;20048;-75
2023/03/04 13:12:04;;;;;;;7.97;2.72;;;7.90;99.90;;;;;;5077162;28;20044;-78
2023/03/04 13:14:31;;;;;;;5.78;2.15;;;7.80;99.90;;;;;;5060667;28;20048;-81